Terminal Aerodrome Forecast
Issued by NWS Greer, SC

Home | Current Version | Previous Version | Graphics & Text | Print | Product List | Glossary On
Versions: 1 2 3 4 5 6 7 8 9 10 11 12 13 14 15 16 17 18 19 20 21 22 23 24 25 26 27 28 29 30 31
000
FTUS42 KGSP 302336
TAFAVL
TAF
KAVL 302336Z 0100/0124 18004KT P6SM VCTS SCT045CB
      TEMPO 0100/0102 VRB10G20KT 4SM TSRA BKN030CB
     FM010200 00000KT P6SM BKN060
     FM010900 00000KT 3SM BR SCT003 OVC010
      TEMPO 0110/0113 3/4SM BR OVC003
     FM011500 33005KT P6SM SCT040=

USA.gov is the U.S. government's official web portal to all federal, state and local government web resources and services.